• Join FlightAware (Why Join?)
  • Login
  • US Flag 
08:48AM EST


 

Airport Tracker/Info


-or-


 

Live Flight TrackerFlight Track Log ✈ XOJ552 ✈ 28-Jan-2014 ✈ KASE - KIAD

Flight Track Log - Related Links

Times and Time Zones

All times are in EST time to prevent confusion due to time zone crossing. See the XOJ552 flight status page for this flight to view local times or setup timezone preferences in your user account.

Time Position Orientation Groundspeed Altitude Reporting Facility
EST Latitude Longitude Course Direction KTS MPH feet Rate Location/Type
04:57PM 39.3069 -106.9903 282° West 209 241 13,300  Level Denver Center
04:58PM 39.3697 -107.0144 343° North 253 291 15,900 2,700 Climbing Denver Center
05:00PM 39.4611 -107.0019 North 301 346 18,900 2,520 Climbing Denver Center
05:01PM 39.5411 -106.9964 North 302 348 21,200 2,280 Climbing Denver Center
05:02PM 39.8546 -106.9151 14° North  Level FlightAware Approximate
05:02PM 39.6414 -106.9881 North 321 369 23,700  Level Denver Center
05:03PM 39.7264 -106.9631 13° North 336 387 25,600 1,860 Climbing Denver Center
05:04PM 39.8242 -106.9286 15° North 340 391 27,600 1,620 Climbing Denver Center
05:05PM 39.8714 -106.8139 62° Northeast 411 473 29,000 1,320 Climbing Denver Center
05:06PM 39.8997 -106.6575 77° East 437 503 30,400 1,440 Climbing Denver Center
05:07PM 39.9342 -106.4647 77° East 452 520 32,000 1,440 Climbing Denver Center
05:08PM 39.9606 -106.3017 78° East 458 527 33,400 1,260 Climbing Denver Center
05:09PM 39.9914 -106.1361 76° East 467 537 34,700 720 Climbing Denver Center
05:10PM 40.0186 -105.9692 78° East 470 541 35,000 120 Climbing Denver Center
05:11PM 40.0481 -105.8031 77° East 469 540 35,000 480 Level Denver Center
05:12PM 40.0739 -105.6389 78° East 463 533 36,000 720 Climbing Denver Center
05:13PM 40.1022 -105.4689 78° East 474 545 36,500 480 Climbing Denver Center
05:14PM 40.1317 -105.2964 77° East 483 556 37,000 240 Climbing Denver Center
05:15PM 40.1647 -105.0897 78° East 483 556 37,000  Level Denver Center
05:16PM 40.1908 -104.9236 78° East 470 541 37,000  Level Denver Center
05:17PM 40.2172 -104.7583 78° East 465 535 37,000 240 Level Denver Center
05:18PM 40.2431 -104.5922 78° East 464 534 37,600 540 Climbing Denver Center
05:19PM 40.2700 -104.4267 78° East 464 534 38,200 540 Climbing Denver Center
05:20PM 40.2964 -104.2539 79° East 476 548 38,800 480 Climbing Denver Center
05:21PM 40.3225 -104.0797 79° East 485 558 39,300 540 Climbing Denver Center
05:22PM 40.3492 -103.9022 79° East 492 566 40,000 780 Climbing Denver Center
05:23PM 40.3811 -103.6933 79° East 490 564 41,000 480 Climbing Denver Center
05:24PM 40.4064 -103.5189 79° East 487 560 41,000  Level Denver Center
05:25PM 40.4322 -103.3442 79° East 488 562 41,000  Level Denver Center
05:26PM 40.4567 -103.1694 80° East 488 562 41,000  Level Denver Center
05:27PM 40.4817 -102.9958 79° East 484 557 41,000  Level Denver Center
05:28PM 40.5058 -102.8217 80° East 487 560 41,000  Level Denver Center
05:29PM 40.5331 -102.6322 79° East 494 568 41,000  Level Denver Center
05:30PM 40.5603 -102.4328 80° East 497 572 41,000  Level Denver Center
05:31PM 40.5842 -102.2597 80° East 501 577 41,000  Level Denver Center
05:32PM 40.6111 -102.0586 80° East 500 575 41,000  Level Denver Center
05:33PM 40.6350 -101.8856 80° East 501 577 41,000  Level Denver Center
05:35PM 40.6567 -101.7131 81° East 500 575 41,000  Level Denver Center
05:36PM 40.6828 -101.5100 80° East 502 578 41,000  Level Denver Center
05:37PM 40.7058 -101.3358 80° East 505 581 41,000  Level Denver Center
05:38PM 40.7319 -101.1322 80° East 505 581 41,000  Level Denver Center
05:39PM 40.7536 -100.9564 81° East 509 586 41,000  Level Denver Center
05:40PM 40.7783 -100.7594 81° East 506 582 41,000  Level Denver Center
05:41PM 40.8028 -100.5589 81° East 508 585 41,000  Level Denver Center
05:42PM 40.8239 -100.3831 81° East 509 586 41,000  Level Denver Center
05:43PM 40.8433 -100.2094 82° East 502 578 41,000  Level Denver Center
05:44PM 40.8669 -100.0083 81° East 498 573 41,000  Level Denver Center
05:45PM 40.8897 -99.8128 81° East 495 570 41,000  Level Denver Center
05:46PM 40.9100 -99.6347 81° East 492 566 41,000  Level Denver Center
05:47PM 40.9297 -99.4553 82° East 493 567 41,000  Level Denver Center
05:48PM 40.9494 -99.2767 82° East 493 567 41,000  Level Denver Center
05:49PM 40.9686 -99.0928 82° East 496 571 41,000  Level Denver Center
05:50PM 40.9803 -98.9889 82° East 495 570 41,000  Level Minneapolis Center
05:51PM 41.0022 -98.7797 82° East 495 570 41,000  Level Minneapolis Center
05:52PM 41.0219 -98.6011 82° East 495 570 41,000  Level Minneapolis Center
05:53PM 41.0383 -98.4231 83° East 494 568 41,000  Level Minneapolis Center
05:54PM 41.0561 -98.2422 83° East 495 570 41,000  Level Minneapolis Center
05:55PM 41.0739 -98.0597 83° East 497 572 41,000  Level Minneapolis Center
05:56PM 41.0925 -97.8758 82° East 500 575 41,000  Level Minneapolis Center
05:57PM 41.1131 -97.6517 83° East 506 582 41,000  Level Minneapolis Center
05:58PM 41.1300 -97.4650 83° East 506 582 41,000  Level Minneapolis Center
05:59PM 41.1472 -97.2731 83° East 510 587 41,000  Level Minneapolis Center
06:00PM 41.1653 -97.0850 83° East 512 589 41,000  Level Minneapolis Center
06:01PM 41.1819 -96.8978 83° East 512 589 41,000  Level Minneapolis Center
06:02PM 41.1986 -96.7086 83° East 512 589 41,000  Level Minneapolis Center
06:03PM 41.2142 -96.5200 84° East 514 592 41,000  Level Minneapolis Center
06:04PM 41.2314 -96.3219 83° East 514 592 41,000  Level Minneapolis Center
06:05PM 41.2472 -96.1106 84° East 509 586 41,000  Level Minneapolis Center
06:06PM 41.2628 -95.9233 84° East 509 586 41,000  Level Minneapolis Center
06:07PM 41.2775 -95.7347 84° East 510 587 41,000  Level Minneapolis Center
06:08PM 41.2889 -95.5611 85° East 510 587 41,000  Level Minneapolis Center
06:09PM 41.3056 -95.3350 84° East 513 590 41,000  Level Minneapolis Center
06:10PM 41.3203 -95.1456 84° East 513 590 41,000  Level Minneapolis Center
06:11PM 41.3325 -94.9575 85° East 514 592 41,000  Level Minneapolis Center
06:12PM 41.3444 -94.7694 85° East 513 590 41,000  Level Minneapolis Center
06:13PM 41.3578 -94.5803 85° East 513 590 41,000  Level Minneapolis Center
06:14PM 41.3692 -94.3928 85° East 513 590 41,000  Level Minneapolis Center
06:15PM 41.3836 -94.1836 85° East 513 590 41,000  Level Minneapolis Center
06:16PM 41.3961 -93.9944 85° East 513 590 41,000  Level Minneapolis Center
06:17PM 41.4075 -93.8047 85° East 513 590 41,000  Level Minneapolis Center
06:18PM 41.4189 -93.6144 85° East 514 592 41,000  Level Minneapolis Center
06:19PM 41.4314 -93.4203 85° East 522 601 41,000  Level Minneapolis Center
06:20PM 41.4433 -93.1894 86° East 523 602 41,000  Level Minneapolis Center
06:22PM 41.4536 -92.9981 86° East 522 601 41,000  Level Minneapolis Center
06:23PM 41.4636 -92.8072 86° East 522 601 41,000  Level Minneapolis Center
06:24PM 41.4744 -92.6164 86° East 521 600 41,000  Level Minneapolis Center
06:25PM 41.4836 -92.4244 86° East 521 600 41,000  Level Minneapolis Center
06:26PM 41.4922 -92.2350 86° East 519 597 41,000  Level Minneapolis Center
06:27PM 41.5006 -92.0442 87° East 517 595 41,000  Level Minneapolis Center
06:28PM 41.5111 -91.8142 86° East 517 595 41,000  Level Minneapolis Center
06:29PM 41.5219 -91.5278 87° East 523 602 41,000  Level Chicago Center
06:30PM 41.5256 -91.3342 89° East 524 603 41,000  Level Chicago Center
06:31PM 41.5289 -91.1403 89° East 527 606 41,000  Level Chicago Center
06:32PM 41.5328 -90.9458 88° East 529 609 41,000  Level Chicago Center
06:33PM 41.5358 -90.7528 89° East 526 605 41,000  Level Chicago Center
06:34PM 41.5383 -90.5342 89° East 530 610 41,000  Level Chicago Center
06:35PM 41.5408 -90.3381 89° East 528 608 41,000  Level Chicago Center
06:36PM 41.5428 -90.1453 89° East 521 600 41,000  Level Chicago Center
06:37PM 41.5444 -89.9492 89° East 523 602 41,000  Level Chicago Center
06:38PM 41.5461 -89.7542 89° East 523 602 41,000  Level Chicago Center
06:39PM 41.5469 -89.5569 90° East 527 606 41,000  Level Chicago Center
06:40PM 41.5486 -89.3203 89° East 528 608 41,000  Level Chicago Center
06:42PM 41.5494 -89.1228 90° East 530 610 41,000  Level Chicago Center
06:43PM 41.5506 -88.9258 90° East 529 609 41,000  Level Chicago Center
06:44PM 41.5486 -88.7283 91° East 529 609 41,000  Level Chicago Center
06:45PM 41.5481 -88.5311 90° East 530 610 41,000  Level Chicago Center
06:46PM 41.5456 -88.3342 91° East 530 610 41,000  Level Chicago Center
06:47PM 41.5094 -88.1450 104° East 522 601 41,000  Level Chicago Center
06:48PM 41.4689 -87.9558 106° East 528 608 41,000  Level Chicago Center
06:49PM 41.4281 -87.7706 106° East 528 608 41,000  Level Chicago Center
06:50PM 41.3781 -87.5450 106° East 531 611 41,000  Level Chicago Center
06:51PM 41.3353 -87.3572 107° East 532 612 41,000  Level Chicago Center
06:52PM 41.2939 -87.1692 106° East 532 612 41,000  Level Chicago Center
06:53PM 41.2511 -86.9811 107° East 534 615 41,000  Level Chicago Center
06:54PM 41.2086 -86.7944 107° East 532 612 41,000  Level Chicago Center
06:55PM 41.1658 -86.6086 107° East 530 610 41,000  Level Chicago Center
06:56PM 41.1219 -86.4222 107° East 532 612 41,000  Level Chicago Center
06:57PM 41.0697 -86.1986 107° East 532 612 41,000  Level Chicago Center
06:58PM 41.0258 -86.0119 107° East 534 615 41,000  Level Chicago Center
06:59PM 40.9814 -85.8281 108° East 531 611 41,000  Level Chicago Center
07:00PM 40.9375 -85.6431 107° East 531 611 41,000  Level Chicago Center
07:01PM 40.8925 -85.4572 108° East 534 615 41,000  Level Chicago Center
07:02PM 40.8469 -85.2725 108° East 534 615 41,000  Level Chicago Center
07:03PM 40.7928 -85.0506 108° East 534 615 41,000  Level Chicago Center
07:04PM 40.7472 -84.8661 108° East 533 613 41,000  Level Chicago Center
07:05PM 40.7008 -84.6831 108° East 532 612 41,000  Level Chicago Center
07:06PM 40.6547 -84.4989 108° East 532 612 41,000  Level Chicago Center
07:07PM 40.6083 -84.3142 108° East 533 613 41,000  Level Chicago Center
07:08PM 40.5611 -84.1325 109° East 530 610 41,000  Level Chicago Center
07:09PM 40.5144 -83.9481 108° East 532 612 41,000  Level Chicago Center
07:10PM 40.4556 -83.7286 109° East 532 612 41,000  Level Chicago Center
07:11PM 40.4086 -83.5442 108° East 535 616 41,000  Level Chicago Center
07:13PM 40.3425 -83.2989 109° East 534 615 41,000  Level Indianapolis Center
07:14PM 40.2928 -83.1108 109° East 540 621 41,000  Level Indianapolis Center
07:15PM 40.2425 -82.9250 109° East 540 621 41,000  Level Indianapolis Center
07:16PM 40.1908 -82.7381 110° East 544 626 41,000  Level Indianapolis Center
07:17PM 40.1411 -82.5483 109° East 547 629 41,000  Level Indianapolis Center
07:18PM 40.1028 -82.3536 104° East 551 634 41,000  Level Indianapolis Center
07:19PM 40.0625 -82.1603 105° East 552 635 41,000  Level Indianapolis Center
07:20PM 40.0133 -81.9283 105° East 553 636 41,000  Level Indianapolis Center
07:21PM 39.9758 -81.7475 105° East 555 639 41,000  Level Indianapolis Center
07:22PM 39.9314 -81.5406 106° East 555 639 41,000  Level Indianapolis Center
07:23PM 39.8897 -81.3322 105° East 560 644 41,000  Level Indianapolis Center
07:24PM 39.8511 -81.1369 104° East 557 641 41,000  Level Indianapolis Center
07:25PM 39.8097 -80.9392 105° East 561 646 41,000 -540 Level Indianapolis Center
07:26PM 39.7692 -80.7450 105° East 557 641 40,000 -1,500 Descending Indianapolis Center
07:27PM 39.7233 -80.5200 105° East 554 638 37,800 -1,980 Descending Cleveland Center
07:28PM 39.6814 -80.3244 106° East 561 646 35,800 -1,980 Descending Cleveland Center
07:29PM 39.6400 -80.1269 105° East 570 656 33,800 -1,920 Descending Cleveland Center
07:30PM 39.5975 -79.9314 106° East 571 657 31,900 -2,040 Descending Cleveland Center
07:31PM 39.5500 -79.6961 105° East 578 665 29,500 -2,100 Descending Washington Center
07:32PM 39.5106 -79.5056 105° East 568 654 27,500 -1,620 Descending Washington Center
07:33PM 39.4703 -79.3311 107° East 545 627 26,300 -1,860 Descending Washington Center
07:34PM 39.4294 -79.1597 107° East 526 605 23,900 -2,340 Descending Washington Center
07:35PM 39.3989 -78.9972 104° East 491 565 21,700 -2,160 Descending Washington Center
07:36PM 39.3719 -78.8428 103° East 462 532 19,600 -1,980 Descending Washington Center
07:37PM 39.3486 -78.7022 102° East 430 495 17,800 -1,980 Descending Washington Center
07:38PM 39.3206 -78.5642 105° East 406 467 15,700 -1,980 Descending Washington Center
07:39PM 39.2989 -78.4319 102° East 384 442 13,900 -1,680 Descending Washington Center
07:41PM 39.2167 -78.2333 118° Southeast 312 359 11,100 -1,380 Descending Potomac TRACON
07:42PM 39.1667 -78.1500 128° Southeast 307 353 10,100 -540 Descending Potomac TRACON
07:43PM 39.1167 -78.0500 123° Southeast 300 345 10,000 -600 Descending Potomac TRACON
07:44PM 39.0833 -77.9667 117° Southeast 293 337 9,000 -1,380 Descending Potomac TRACON
07:45PM 39.0333 -77.8833 128° Southeast 281 323 7,400 -1,020 Descending Potomac TRACON
07:46PM 39.0000 -77.8167 123° Southeast 265 305 7,000 -720 Descending Potomac TRACON
07:47PM 38.9667 -77.7333 117° Southeast 264 304 6,100 -540 Descending Potomac TRACON
07:48PM 38.9500 -77.6333 102° East 265 305 6,000 -60 Descending Potomac TRACON
07:49PM 38.9000 -77.6000 153° Southeast 261 300 6,000  Level Potomac TRACON
07:50PM 38.8333 -77.5667 159° South 233 268 6,000 -420 Level Potomac TRACON
07:51PM 38.7667 -77.5667 180° South 199 229 5,200 -1,440 Descending Potomac TRACON
07:52PM 38.7667 -77.5000 90° East 200 230 3,200 -1,200 Descending Potomac TRACON
07:53PM 38.8000 -77.4667 38° Northeast 177 204 3,000 -300 Descending Potomac TRACON
07:54PM 38.8500 -77.4667 360° North 144 166 2,700 -660 Descending Potomac TRACON
07:55PM 38.8833 -77.4667 360° North 126 145 1,700 -960 Descending Potomac TRACON
07:56PM 38.9167 -77.4667 360° North 121 139 900 -840 Descending Potomac TRACON